Latest Weather Observations for Grafton Airport

IDN60801

Issued at 11:22 am EDT Tuesday 19 February 2019 (issued every 10 minutes, with the page automatically refreshed every 10 minutes)

About weather observations | Map of weather stations | Latest weather observations for NSW | Other Formats
Station Details ID: 058161 Name: GRAFTON AIRPORT AWS Lat: -29.76 Lon: 153.03 Height: 25.09 m
Data from the previous 72 hours. | See also: Recent months at Grafton Airport
Date/Time
EDT
Temp
°C
App
Temp
°C
Dew
Point
°C
Rel
Hum
%
Delta-T
°C
Wind Press
QNH
hPa
Press
MSL
hPa
Rain since
9am
mm
Dir  Spd
km/h
Gust
km/h
Spd
kts
Gust
kts
19/11:00am 28.0 28.4 17.2 52 6.8 NNE 11 19 6 10 1008.7 1008.5 0.0
19/10:30am 27.7 28.8 18.1 56 6.1 NNE 9 15 5 8 1008.9 1008.7 0.0
19/10:00am 26.0 27.4 17.9 61 5.1 N 7 13 4 7 1009.0 1008.8 0.0
19/09:30am 24.4 26.1 18.6 70 3.7 NW 7 11 4 6 1009.3 1009.1 0.0
19/09:00am 22.4 24.5 19.0 81 2.2 NNE 6 9 3 5 1009.2 1009.0 0.0
19/08:30am 20.1 22.7 20.1 100 0.0 N 6 7 3 4 1009.3 1009.1 0.0
19/08:22am 19.7 22.1 19.7 100 0.0 N 6 7 3 4 1009.2 1009.0 0.0
19/08:14am 19.3 21.9 19.3 100 0.0 N 4 7 2 4 1009.2 1009.0 0.0
19/08:00am 18.8 20.8 18.8 100 0.0 NNE 6 7 3 4 1009.1 1008.9 0.0
19/07:30am 18.1 21.0 18.1 100 0.0 CALM 0 0 0 0 1009.1 1008.9 0.0
19/07:00am 17.3 19.7 17.1 99 0.1 CALM 0 0 0 0 1008.8 1008.6 0.0
19/06:33am 16.7 18.8 16.2 97 0.3 CALM 0 0 0 0 1008.7 1008.5 0.0
19/06:30am 16.7 18.8 16.2 97 0.3 CALM 0 0 0 0 1008.7 1008.5 0.0
19/06:21am 16.6 18.5 15.8 95 0.5 CALM 0 0 0 0 1008.6 1008.4 0.0
19/06:08am 17.0 19.0 16.0 94 0.6 CALM 0 0 0 0 1008.6 1008.4 0.0
19/06:00am 17.1 19.1 16.1 94 0.6 CALM 0 0 0 0 1008.7 1008.5 0.0
19/05:49am 17.5 19.9 16.9 96 0.4 CALM 0 0 0 0 1008.8 1008.6 0.0
19/05:30am 17.8 20.3 17.2 96 0.4 CALM 0 0 0 0 1008.7 1008.5 0.0
19/05:00am 17.8 20.2 17.0 95 0.5 CALM 0 0 0 0 1008.8 1008.6 0.0
19/04:30am 18.0 20.4 17.0 94 0.6 CALM 0 0 0 0 1009.0 1008.8 0.0
19/04:00am 18.1 20.4 16.8 92 0.8 CALM 0 0 0 0 1009.0 1008.8 0.0
19/03:30am 18.4 20.8 16.9 91 0.9 CALM 0 0 0 0 1009.5 1009.3 0.0
19/03:00am 18.9 21.5 17.6 92 0.8 CALM 0 0 0 0 1009.9 1009.7 0.0
19/02:30am 19.0 21.6 17.5 91 0.9 CALM 0 0 0 0 1010.0 1009.8 0.0
19/02:00am 19.4 22.2 17.9 91 0.9 CALM 0 0 0 0 1010.3 1010.1 0.0
19/01:30am 19.4 22.1 17.7 90 1.0 CALM 0 0 0 0 1010.6 1010.5 0.0
19/01:00am 19.7 22.4 17.7 88 1.2 CALM 0 0 0 0 1011.0 1010.9 0.0
19/12:30am 20.3 23.2 18.1 87 1.4 CALM 0 0 0 0 1011.2 1011.1 0.0
19/12:00am 20.2 22.5 17.8 86 1.5 SSW 2 6 1 3 1011.5 1011.4 0.0
 
Date/Time
EDT
Temp
°C
App
Temp
°C
Dew
Point
°C
Rel
Hum
%
Delta-T
°C
Wind Press
QNH
hPa
Press
MSL
hPa
Rain since
9am
mm
Dir  Spd
km/h
Gust
km/h
Spd
kts
Gust
kts
18/11:30pm 20.4 22.1 18.0 86 1.5 SSW 6 7 3 4 1011.5 1011.4 0.0
18/11:00pm 20.9 22.6 18.1 84 1.7 SSW 6 7 3 4 1011.5 1011.4 0.0
18/10:30pm 21.2 23.9 17.8 81 2.1 CALM 0 0 0 0 1011.6 1011.5 0.0
18/10:00pm 21.8 24.4 17.6 77 2.6 CALM 0 0 0 0 1011.5 1011.4 0.0
18/09:30pm 22.7 25.3 17.6 73 3.2 CALM 0 0 0 0 1011.4 1011.3 0.0
18/09:00pm 23.5 25.3 18.2 72 3.3 ENE 6 7 3 4 1011.0 1010.9 0.0
18/08:30pm 23.7 24.8 17.9 70 3.6 ENE 9 13 5 7 1010.7 1010.6 0.0
18/08:00pm 24.3 24.9 17.8 67 4.1 ENE 11 17 6 9 1010.5 1010.4 0.0
18/07:30pm 25.1 25.3 17.6 63 4.7 ENE 13 19 7 10 1010.1 1009.9 0.0
18/07:00pm 26.3 25.4 16.8 56 5.9 ENE 17 24 9 13 1009.8 1009.6 0.0
18/06:30pm 27.4 26.1 15.7 48 7.2 ENE 17 26 9 14 1009.4 1009.2 0.0
18/06:00pm 28.2 26.1 14.8 44 8.1 NE 19 28 10 15 1009.1 1008.9 0.0
18/05:30pm 29.4 27.7 14.8 41 8.9 ENE 17 24 9 13 1009.0 1008.8 0.0
18/05:00pm 29.4 27.2 14.8 41 8.9 NE 20 32 11 17 1009.0 1008.8 0.0
18/04:30pm 30.3 28.2 15.2 40 9.3 NE 20 30 11 16 1009.0 1008.8 0.0
18/04:00pm 30.3 27.7 14.8 39 9.5 NE 22 35 12 19 1009.2 1009.0 0.0
18/03:30pm 31.7 29.8 15.2 36 10.2 NE 19 30 10 16 1009.3 1009.1 0.0
18/03:00pm 32.0 30.1 15.1 36 10.4 NE 19 33 10 18 1009.5 1009.3 0.0
18/02:30pm 31.1 30.3 15.1 38 9.8 NNE 13 20 7 11 1010.0 1009.8 0.0
18/02:00pm 31.0 29.0 15.0 38 9.8 NE 19 32 10 17 1010.5 1010.4 0.0
18/01:30pm 31.2 30.4 15.2 38 9.9 NNE 13 20 7 11 1010.8 1010.7 0.0
18/01:00pm 30.3 29.5 15.2 40 9.3 N 13 20 7 11 1011.4 1011.3 0.0
18/12:30pm 29.4 28.0 14.4 40 9.1 N 15 22 8 12 1011.7 1011.6 0.0
18/12:00pm 29.1 28.8 14.5 41 8.8 NNW 9 17 5 9 1012.0 1011.9 0.0
18/11:30am 28.6 28.3 14.4 41 8.6 NNE 9 20 5 11 1012.6 1012.5 0.0
18/11:00am 27.7 27.9 15.7 48 7.4 NNE 9 17 5 9 1013.0 1012.9 0.0
18/10:30am 27.1 27.7 15.8 50 6.9 N 7 13 4 7 1013.2 1013.1 0.0
18/10:00am 25.7 26.1 16.3 56 5.8 NE 9 15 5 8 1013.4 1013.3 0.0
18/09:30am 25.1 26.3 16.8 60 5.1 WNW 6 9 3 5 1013.5 1013.4 0.0
18/09:00am 23.6 24.7 17.1 67 4.0 SW 7 11 4 6 1013.5 1013.4 0.0
18/08:30am 21.7 23.0 17.1 75 2.8 WSW 6 9 3 5 1013.5 1013.4 0.0
18/08:00am 19.9 22.3 16.9 83 1.8 CALM 0 6 0 3 1013.3 1013.2 0.0
18/07:30am 17.8 20.2 17.0 95 0.5 CALM 0 0 0 0 1013.1 1013.0 0.0
18/07:00am 16.6 18.5 15.8 95 0.5 CALM 0 0 0 0 1012.8 1012.7 0.0
18/06:30am 16.4 18.1 15.3 93 0.6 CALM 0 0 0 0 1012.6 1012.5 0.0
18/06:00am 16.7 18.4 15.2 91 0.9 CALM 0 0 0 0 1012.5 1012.4 0.0
18/05:30am 17.2 19.0 15.4 89 1.1 CALM 0 0 0 0 1012.4 1012.3 0.0
18/05:00am 17.6 19.4 15.6 88 1.2 CALM 0 0 0 0 1012.3 1012.2 0.0
18/04:30am 18.1 19.6 15.7 86 1.4 SW 2 6 1 3 1012.5 1012.4 0.0
18/04:00am 18.4 19.2 15.8 85 1.5 SW 6 7 3 4 1012.7 1012.6 0.0
18/03:30am 19.0 19.7 16.0 83 1.8 SW 7 9 4 5 1012.9 1012.8 0.0
18/03:00am 19.5 21.2 16.3 82 1.9 WNW 2 7 1 4 1013.2 1013.1 0.0
18/02:30am 19.4 20.1 16.2 82 1.9 SSW 7 9 4 5 1013.4 1013.3 0.0
18/02:00am 18.5 19.4 16.1 86 1.4 SW 6 7 3 4 1013.6 1013.5 0.0
18/01:30am 18.6 19.4 15.8 84 1.7 SSW 6 7 3 4 1013.9 1013.8 0.0
18/01:00am 18.8 19.7 16.2 85 1.6 SW 6 7 3 4 1014.1 1014.0 0.0
18/12:30am 19.0 20.9 15.7 81 2.0 CALM 0 0 0 0 1014.4 1014.3 0.0
18/12:00am 19.8 20.7 16.1 79 2.2 SSW 6 9 3 5 1014.5 1014.4 0.0
 
Date/Time
EDT
Temp
°C
App
Temp
°C
Dew
Point
°C
Rel
Hum
%
Delta-T
°C
Wind Press
QNH
hPa
Press
MSL
hPa
Rain since
9am
mm
Dir  Spd
km/h
Gust
km/h
Spd
kts
Gust
kts
17/11:30pm 19.9 21.8 15.7 77 2.5 CALM 0 0 0 0 1014.6 1014.5 0.0
17/11:00pm 20.3 22.3 16.1 77 2.5 CALM 0 0 0 0 1014.7 1014.6 0.0
17/10:30pm 20.4 21.3 16.2 77 2.5 SSW 6 9 3 5 1014.8 1014.7 0.0
17/10:00pm 21.1 23.2 16.3 74 2.9 CALM 0 0 0 0 1014.7 1014.6 0.0
17/09:30pm 21.5 23.5 16.0 71 3.3 CALM 0 0 0 0 1014.4 1014.3 0.0
17/09:00pm 22.3 24.3 15.9 67 3.9 CALM 0 0 0 0 1014.1 1014.0 0.0
17/08:30pm 23.4 25.3 15.7 62 4.6 CALM 0 6 0 3 1013.8 1013.7 0.0
17/08:00pm 24.0 24.6 15.8 60 5.0 ESE 7 15 4 8 1013.4 1013.3 0.0
17/07:30pm 24.7 24.0 15.3 56 5.7 ESE 13 22 7 12 1013.1 1013.0 0.0
17/07:00pm 25.7 24.8 14.8 51 6.5 E 13 19 7 10 1012.7 1012.6 0.0
17/06:30pm 26.5 24.5 13.9 45 7.5 E 17 26 9 14 1012.4 1012.3 0.0
17/06:00pm 27.2 25.2 14.9 47 7.4 ESE 19 28 10 15 1012.2 1012.1 0.0
17/05:30pm 27.4 25.3 14.8 46 7.6 ESE 19 26 10 14 1012.1 1012.0 0.0
17/05:00pm 28.0 25.8 15.0 45 7.9 E 20 30 11 16 1012.0 1011.9 0.0
17/04:30pm 29.0 27.0 15.5 44 8.3 E 20 30 11 16 1011.9 1011.8 0.0
17/04:00pm 29.3 26.6 13.5 38 9.4 E 20 33 11 18 1011.9 1011.8 0.0
17/03:30pm 29.5 27.3 13.3 37 9.6 ENE 17 30 9 16 1012.2 1012.1 0.0
17/03:00pm 29.2 26.8 12.6 36 9.8 E 17 30 9 16 1012.6 1012.5 0.0
17/02:30pm 31.2 29.2 13.9 35 10.5 ENE 17 26 9 14 1012.8 1012.7 0.0
17/02:00pm 29.3 27.7 12.7 36 9.8 E 13 24 7 13 1013.2 1013.1 0.0
17/01:30pm 29.5 27.9 12.9 36 9.8 NNE 13 20 7 11 1013.6 1013.5 0.0
17/01:00pm 28.7 28.4 12.6 37 9.4 SE 6 15 3 8 1014.1 1014.0 0.0
17/12:30pm 28.5 28.4 14.0 41 8.7 E 7 13 4 7 1014.6 1014.5 0.0
17/12:00pm 28.5 29.1 15.4 45 8.0 N 6 11 3 6 1015.1 1015.0 0.0
17/11:30am 27.3 26.5 15.0 47 7.5 ENE 13 20 7 11 1015.5 1015.4 0.0
17/11:00am 26.7 27.0 14.5 47 7.3 N 6 13 3 7 1015.8 1015.7 0.0
17/10:30am 27.1 27.3 15.8 50 6.9 WNW 9 13 5 7 1015.9 1015.8 0.0
17/10:00am 25.9 26.4 15.6 53 6.3 WSW 7 9 4 5 1016.1 1016.0 0.0
17/09:30am 25.0 25.7 15.6 56 5.7 SW 6 11 3 6 1016.1 1016.0 0.0
17/09:00am 24.1 24.9 16.4 62 4.7 SW 7 11 4 6 1016.0 1015.9 0.0
17/08:30am 22.4 23.0 15.7 66 4.0 SSW 7 9 4 5 1015.9 1015.8 0.0
17/08:00am 21.0 20.8 15.8 72 3.1 SSW 11 13 6 7 1015.8 1015.7 0.0
17/07:30am 18.8 19.6 15.9 83 1.7 SSW 6 9 3 5 1015.6 1015.5 0.0
17/07:00am 17.9 18.4 15.5 86 1.4 SSW 7 9 4 5 1015.5 1015.4 0.0
17/06:30am 17.5 17.9 15.3 87 1.3 SW 7 9 4 5 1015.3 1015.2 0.0
17/06:00am 18.0 18.5 14.9 82 1.8 SSW 6 7 3 4 1015.1 1015.0 0.0
17/05:30am 18.7 19.3 15.2 80 2.1 SW 6 7 3 4 1014.9 1014.8 0.0
17/05:00am 19.1 19.7 15.4 79 2.2 SW 6 7 3 4 1014.9 1014.8 0.0
17/04:30am 18.9 19.3 15.4 80 2.1 SW 7 9 4 5 1015.1 1015.0 0.0
17/04:00am 19.1 19.2 15.4 79 2.2 SSW 9 11 5 6 1015.2 1015.1 0.0
17/03:30am 19.1 19.5 15.4 79 2.2 SSW 7 9 4 5 1015.5 1015.4 0.0
17/03:00am 19.0 19.0 15.3 79 2.2 SW 9 13 5 7 1015.8 1015.7 0.0
17/02:30am 18.8 19.2 15.3 80 2.1 SW 7 9 4 5 1016.1 1016.0 0.0
17/02:00am 18.9 19.4 15.6 81 1.9 S 7 9 4 5 1016.4 1016.3 0.0
17/01:30am 18.8 19.2 15.3 80 2.1 SSW 7 9 4 5 1016.5 1016.4 0.0
17/01:00am 18.5 18.8 15.0 80 2.0 SSW 7 9 4 5 1017.2 1017.1 0.0
17/12:30am 19.0 19.3 15.1 78 2.3 SW 7 7 4 4 1017.6 1017.5 0.0
17/12:00am 19.6 19.9 15.0 75 2.7 SSW 7 11 4 6 1018.0 1017.9 0.0
 
Date/Time
EDT
Temp
°C
App
Temp
°C
Dew
Point
°C
Rel
Hum
%
Delta-T
°C
Wind Press
QNH
hPa
Press
MSL
hPa
Rain since
9am
mm
Dir  Spd
km/h
Gust
km/h
Spd
kts
Gust
kts
16/11:30pm 19.9 20.2 15.1 74 2.8 SSW 7 9 4 5 1018.1 1018.0 0.0
16/11:00pm 20.6 21.0 15.4 72 3.1 SSW 7 9 4 5 1018.1 1018.0 0.0
16/10:30pm 20.3 20.7 15.3 73 3.0 SSW 7 9 4 5 1018.4 1018.3 0.0
16/10:00pm 20.5 21.1 15.3 72 3.1 SW 6 9 3 5 1018.3 1018.2 0.0
16/09:30pm 21.4 21.9 15.0 67 3.8 SSW 6 7 3 4 1018.2 1018.1 0.0
16/09:00pm 22.2 22.2 15.3 65 4.1 S 9 11 5 6 1017.8 1017.7 0.0
16/08:30pm 22.9 22.9 15.2 62 4.6 SSE 9 11 5 6 1017.7 1017.6 0.0
16/08:00pm 23.5 23.4 15.0 59 5.1 SE 9 15 5 8 1017.4 1017.3 0.0
16/07:30pm 24.1 23.0 14.2 54 5.8 SE 13 20 7 11 1017.2 1017.1 0.0
16/07:00pm 25.1 23.5 13.9 49 6.6 SE 15 28 8 15 1017.0 1016.9 0.0
16/06:30pm 25.8 23.2 13.3 46 7.3 ESE 19 30 10 16 1016.8 1016.7 0.0
16/06:00pm 26.5 24.1 12.5 41 8.1 SE 17 28 9 15 1016.8 1016.7 0.0
16/05:30pm 27.2 23.6 11.7 38 8.9 SE 22 30 12 16 1016.8 1016.7 0.0
16/05:00pm 27.3 23.5 11.3 37 9.1 SE 22 32 12 17 1016.7 1016.6 0.0
16/04:30pm 27.9 24.9 11.9 37 9.2 ESE 19 26 10 14 1016.6 1016.5 0.0
16/04:00pm 28.3 25.0 10.9 34 9.9 SE 19 28 10 15 1016.6 1016.5 0.0
16/03:30pm 28.1 25.5 12.0 36 9.3 SE 17 28 9 15 1016.9 1016.8 0.0
16/03:00pm 27.3 24.0 11.7 37 8.9 SSE 20 33 11 18 1017.2 1017.1 0.0
16/02:30pm 28.7 25.6 12.2 36 9.6 SSE 20 30 11 16 1017.5 1017.4 0.0
16/02:00pm 28.6 25.3 11.6 34 9.8 ESE 20 32 11 17 1017.8 1017.7 0.0
16/01:30pm 28.5 25.3 11.1 34 10.0 SE 19 28 10 15 1018.2 1018.1 0.0
16/01:00pm 29.3 26.2 10.4 31 10.7 ESE 17 28 9 15 1018.5 1018.4 0.0
16/12:30pm 29.4 26.3 11.5 33 10.3 ESE 19 43 10 23 1018.9 1018.8 0.0
16/12:00pm 28.7 26.6 11.3 34 10.0 SE 13 22 7 12 1019.2 1019.1 0.0
16/11:30am 28.1 25.6 11.2 35 9.7 S 15 28 8 15 1019.7 1019.6 0.0

Other formats

Comma delimited format used in spreadsheet applications
http://www.bom.gov.au/fwo/IDN60801/IDN60801.95570.axf

JavaScript Object Notation format (JSON) in row-major order
http://www.bom.gov.au/fwo/IDN60801/IDN60801.95570.json

Data quality

Most of these data are generated automatically and are frequently updated. Quality checks on data are not normally performed. It is possible for incorrect values to appear. Refer to information at About Latest Weather Observations and please check the disclaimer before using these data.